^^
Saratoga-Weather Station Historical Data
Daily Summary for February 24, 2020 Units:  Both    English   Metric
Daily Weekly Monthly Yearly Custom
  High: Low: Average:
Temperature: 67.6 °F /  19.8 °C 51.1 °F /  10.6 °C 59.9 °F /  15.5 °C
Dew Point: 59.4 °F /  15.2 °C 48.4 °F /  9.1 °C 54.1 °F /  12.3 °C
Humidity: 92% 57% 82%
Wind Speed: 13mph /  20.9km/h - 2.4mph /  3.8km/h
Wind Gust: 16mph /  25.7km/h - -
Wind- - South
Pressure: 29.7 in /  1006.8 hPa 29.5 in /  998.0 hPa -
Precipitation: 0.19 in /  4.8 mm    
Historical Graphs
 
 
Tabular Data for February 24, 2020
Time Temperature Dew Point Pressure Wind Wind Speed Wind Gust Humidity Rainfall Rate (Hourly) solar
00:03 64 °F /  17.8 °C 58.5 °F /  14.7 °C 29.6in /  1002.0hPa NE 2mph /  3.2km/h 5mph /  8km/h 82% 0.06in /  1.5mm 0 W/m2
00:08 63.9 °F /  17.7 °C 59 °F /  15 °C 29.6in /  1002.0hPa NNE 0.9mph /  1.4km/h 2mph /  3.2km/h 84% 0.06in /  1.5mm 0 W/m2
00:13 63.5 °F /  17.5 °C 58.8 °F /  14.9 °C 29.6in /  1002.0hPa Calm   5mph /  8km/h 85% 0.06in /  1.5mm 0 W/m2
00:19 63.1 °F /  17.3 °C 58.8 °F /  14.9 °C 29.6in /  1002.0hPa Calm   3mph /  4.8km/h 86% 0.06in /  1.5mm 0 W/m2
00:24 63 °F /  17.2 °C 59.4 °F /  15.2 °C 29.6in /  1002.0hPa Calm     88% 0.06in /  1.5mm 0 W/m2
00:29 62.6 °F /  17 °C 59 °F /  15 °C 29.6in /  1001.7hPa South 2mph /  3.2km/h 3mph /  4.8km/h 88% 0.06in /  1.5mm 0 W/m2
00:34 62.2 °F /  16.8 °C 59 °F /  15 °C 29.6in /  1001.7hPa SSE 2mph /  3.2km/h 4mph /  6.4km/h 89% 0.09in /  2.3mm 0 W/m2
00:39 62.1 °F /  16.7 °C 58.8 °F /  14.9 °C 29.6in /  1001.4hPa Calm   5mph /  8km/h 89% 0.11in /  2.8mm 0 W/m2
00:44 62.1 °F /  16.7 °C 58.8 °F /  14.9 °C 29.6in /  1001.7hPa NNW 4mph /  6.4km/h 4mph /  6.4km/h 89% 0.11in /  2.8mm 0 W/m2
00:49 62.1 °F /  16.7 °C 58.8 °F /  14.9 °C 29.6in /  1001.4hPa NNW 0.9mph /  1.4km/h 5mph /  8km/h 89% 0.06in /  1.5mm 0 W/m2
00:54 62.1 °F /  16.7 °C 58.8 °F /  14.9 °C 29.6in /  1001.7hPa Calm   6mph /  9.7km/h 89% 0.06in /  1.5mm 0 W/m2
00:59 62.1 °F /  16.7 °C 58.8 °F /  14.9 °C 29.6in /  1001.7hPa NNW 0.9mph /  1.4km/h 2mph /  3.2km/h 89% 0.06in /  1.5mm 0 W/m2
01:04 61.9 °F /  16.6 °C 58.6 °F /  14.8 °C 29.6in /  1002.0hPa Calm   6mph /  9.7km/h 89% 0.06in /  1.5mm 0 W/m2
01:09 61.7 °F /  16.5 °C 58.5 °F /  14.7 °C 29.6in /  1002.0hPa Calm   3mph /  4.8km/h 89% 0.06in /  1.5mm 0 W/m2
01:14 61.7 °F /  16.5 °C 58.8 °F /  14.9 °C 29.6in /  1002.0hPa NE 2mph /  3.2km/h 5mph /  8km/h 90% 0.06in /  1.5mm 0 W/m2
01:19 61.9 °F /  16.6 °C 59 °F /  15 °C 29.6in /  1002.0hPa NNW 0.9mph /  1.4km/h 4mph /  6.4km/h 90% 0.06in /  1.5mm 0 W/m2
01:24 62.1 °F /  16.7 °C 58.8 °F /  14.9 °C 29.6in /  1002.0hPa NE 2mph /  3.2km/h 4mph /  6.4km/h 89% 0.06in /  1.5mm 0 W/m2
01:29 62.1 °F /  16.7 °C 58.8 °F /  14.9 °C 29.6in /  1002.0hPa NE 0.9mph /  1.4km/h 4mph /  6.4km/h 89% 0.06in /  1.5mm 0 W/m2
01:34 62.2 °F /  16.8 °C 59 °F /  15 °C 29.6in /  1002.0hPa NW 0.9mph /  1.4km/h 2mph /  3.2km/h 89% 0.03in /  0.8mm 0 W/m2
01:39 62.1 °F /  16.7 °C 58.8 °F /  14.9 °C 29.6in /  1002.0hPa Calm   4mph /  6.4km/h 89% 0.01in /  0.2mm 0 W/m2
01:44 62.1 °F /  16.7 °C 58.8 °F /  14.9 °C 29.6in /  1002.0hPa WNW 2.9mph /  4.7km/h 4mph /  6.4km/h 89% 0.01in /  0.2mm 0 W/m2
01:49 62.1 °F /  16.7 °C 59.2 °F /  15.1 °C 29.6in /  1002.0hPa WNW 4.9mph /  7.9km/h 9mph /  14.5km/h 90% 0.02in /  0.5mm 0 W/m2
01:54 62.1 °F /  16.7 °C 59.2 °F /  15.1 °C 29.6in /  1001.7hPa SE 0.9mph /  1.4km/h 2mph /  3.2km/h 90% 0.02in /  0.5mm 0 W/m2
01:59 62.1 °F /  16.7 °C 59.2 °F /  15.1 °C 29.6in /  1002.0hPa North 0.9mph /  1.4km/h 9mph /  14.5km/h 90% 0.02in /  0.5mm 0 W/m2
02:04 61.9 °F /  16.6 °C 59 °F /  15 °C 29.6in /  1002.0hPa NW 2mph /  3.2km/h 6mph /  9.7km/h 90% 0.02in /  0.5mm 0 W/m2
02:09 61.9 °F /  16.6 °C 59 °F /  15 °C 29.6in /  1001.7hPa NW 0.9mph /  1.4km/h 2mph /  3.2km/h 90% 0.02in /  0.5mm 0 W/m2
02:14 61.9 °F /  16.6 °C 59 °F /  15 °C 29.6in /  1001.7hPa WNW 0.9mph /  1.4km/h 6mph /  9.7km/h 90% 0.02in /  0.5mm 0 W/m2
02:19 61.9 °F /  16.6 °C 59.2 °F /  15.1 °C 29.6in /  1002.0hPa WNW 2mph /  3.2km/h 4mph /  6.4km/h 91% 0.02in /  0.5mm 0 W/m2
02:24 61.9 °F /  16.6 °C 59.2 °F /  15.1 °C 29.6in /  1002.0hPa WNW 2mph /  3.2km/h 3mph /  4.8km/h 91% 0.02in /  0.5mm 0 W/m2
02:29 61.9 °F /  16.6 °C 59.2 °F /  15.1 °C 29.6in /  1002.0hPa South 2mph /  3.2km/h 3mph /  4.8km/h 91% 0.02in /  0.5mm 0 W/m2
02:34 61.9 °F /  16.6 °C 59.2 °F /  15.1 °C 29.6in /  1002.0hPa Calm   2mph /  3.2km/h 91% 0.02in /  0.5mm 0 W/m2
02:39 61.9 °F /  16.6 °C 59.2 °F /  15.1 °C 29.6in /  1002.4hPa NW 2mph /  3.2km/h 4mph /  6.4km/h 91% 0.02in /  0.5mm 0 W/m2
02:44 61.9 °F /  16.6 °C 59.2 °F /  15.1 °C 29.6in /  1002.0hPa Calm   2mph /  3.2km/h 91% 0.02in /  0.5mm 0 W/m2
02:49 61.9 °F /  16.6 °C 59.2 °F /  15.1 °C 29.6in /  1002.0hPa SSW 2mph /  3.2km/h 9mph /  14.5km/h 91% 0.02in /  0.5mm 0 W/m2
02:54 61.7 °F /  16.5 °C 59 °F /  15 °C 29.6in /  1002.0hPa South 0.9mph /  1.4km/h 7mph /  11.3km/h 91% 0.02in /  0.5mm 0 W/m2
03:00 61.5 °F /  16.4 °C 58.8 °F /  14.9 °C 29.6in /  1002.4hPa NNW 0.9mph /  1.4km/h 9mph /  14.5km/h 91% 0.02in /  0.5mm 0 W/m2
03:05 61.5 °F /  16.4 °C 58.8 °F /  14.9 °C 29.6in /  1002.4hPa Calm   1mph /  1.6km/h 91% 0.02in /  0.5mm 0 W/m2
03:10 61.5 °F /  16.4 °C 58.8 °F /  14.9 °C 29.6in /  1002.4hPa North 2mph /  3.2km/h 3mph /  4.8km/h 91% 0.01in /  0.2mm 0 W/m2
03:15 61.5 °F /  16.4 °C 58.8 °F /  14.9 °C 29.6in /  1002.4hPa WNW 0.9mph /  1.4km/h 5mph /  8km/h 91% 0.01in /  0.2mm 0 W/m2
03:20 61.5 °F /  16.4 °C 58.8 °F /  14.9 °C 29.6in /  1002.4hPa East 2mph /  3.2km/h 3mph /  4.8km/h 91% 0.01in /  0.2mm 0 W/m2
03:25 61.5 °F /  16.4 °C 58.8 °F /  14.9 °C 29.6in /  1002.4hPa WNW 0.9mph /  1.4km/h 3mph /  4.8km/h 91% 0.01in /  0.2mm 0 W/m2
03:30 61.5 °F /  16.4 °C 58.8 °F /  14.9 °C 29.6in /  1002.4hPa SW 0.9mph /  1.4km/h 6mph /  9.7km/h 91% 0in /  0.0mm 0 W/m2
03:35 61.5 °F /  16.4 °C 58.8 °F /  14.9 °C 29.6in /  1002.7hPa WNW 2mph /  3.2km/h 8mph /  12.9km/h 91% 0in /  0.0mm 0 W/m2
03:40 61.5 °F /  16.4 °C 58.8 °F /  14.9 °C 29.6in /  1002.7hPa NW 6mph /  9.7km/h 9mph /  14.5km/h 91% 0in /  0.0mm 0 W/m2
03:45 61.3 °F /  16.3 °C 58.6 °F /  14.8 °C 29.6in /  1002.7hPa WNW 2mph /  3.2km/h 5mph /  8km/h 91% 0in /  0.0mm 0 W/m2
03:50 61.3 °F /  16.3 °C 58.6 °F /  14.8 °C 29.6in /  1003.0hPa WSW 4.9mph /  7.9km/h 7mph /  11.3km/h 91% 0in /  0.0mm 0 W/m2
03:55 61.2 °F /  16.2 °C 58.5 °F /  14.7 °C 29.6in /  1003.0hPa WNW 4.9mph /  7.9km/h 9mph /  14.5km/h 91% 0in /  0.0mm 0 W/m2
04:00 61.2 °F /  16.2 °C 58.5 °F /  14.7 °C 29.6in /  1003.0hPa WNW 4mph /  6.4km/h 9mph /  14.5km/h 91% 0.01in /  0.2mm 0 W/m2
04:05 61.2 °F /  16.2 °C 58.5 °F /  14.7 °C 29.6in /  1003.0hPa ENE 2mph /  3.2km/h 5mph /  8km/h 91% 0.01in /  0.2mm 0 W/m2
04:10 61 °F /  16.1 °C 58.3 °F /  14.6 °C 29.6in /  1003.0hPa WNW 2mph /  3.2km/h 6mph /  9.7km/h 91% 0.01in /  0.2mm 0 W/m2
04:15 61 °F /  16.1 °C 58.3 °F /  14.6 °C 29.6in /  1003.0hPa Calm   6mph /  9.7km/h 91% 0.01in /  0.2mm 0 W/m2
04:20 60.8 °F /  16 °C 58.1 °F /  14.5 °C 29.6in /  1003.0hPa NNW 2.9mph /  4.7km/h 3mph /  4.8km/h 91% 0.01in /  0.2mm 0 W/m2
04:25 60.8 °F /  16 °C 58.5 °F /  14.7 °C 29.6in /  1003.0hPa WNW 2mph /  3.2km/h 5mph /  8km/h 92% 0.01in /  0.2mm 0 W/m2
04:30 60.6 °F /  15.9 °C 57.9 °F /  14.4 °C 29.6in /  1003.0hPa WSW 0.9mph /  1.4km/h 2mph /  3.2km/h 91% 0.01in /  0.2mm 0 W/m2
04:35 60.6 °F /  15.9 °C 57.9 °F /  14.4 °C 29.6in /  1003.4hPa SW 6mph /  9.7km/h 16mph /  25.7km/h 91% 0.01in /  0.2mm 0 W/m2
04:40 60.3 °F /  15.7 °C 56.7 °F /  13.7 °C 29.6in /  1003.7hPa NW 4.9mph /  7.9km/h 12mph /  19.3km/h 88% 0.01in /  0.2mm 0 W/m2
04:45 60.1 °F /  15.6 °C 55.9 °F /  13.3 °C 29.6in /  1003.7hPa West 6mph /  9.7km/h 16mph /  25.7km/h 86% 0.01in /  0.2mm 0 W/m2
04:50 59.5 °F /  15.3 °C 54.3 °F /  12.4 °C 29.6in /  1003.7hPa WSW 6mph /  9.7km/h 13mph /  20.9km/h 83% 0.01in /  0.2mm 0 W/m2
04:55 59 °F /  15 °C 54.1 °F /  12.3 °C 29.6in /  1003.7hPa West 6.9mph /  11.1km/h 8mph /  12.9km/h 84% 0.01in /  0.2mm 0 W/m2
05:00 58.3 °F /  14.6 °C 53.4 °F /  11.9 °C 29.6in /  1003.7hPa West 4mph /  6.4km/h 13mph /  20.9km/h 84% 0in /  0.0mm 0 W/m2
05:05 57.7 °F /  14.3 °C 52.9 °F /  11.6 °C 29.6in /  1003.7hPa West 2mph /  3.2km/h 7mph /  11.3km/h 84% 0in /  0.0mm 0 W/m2
05:10 57.2 °F /  14 °C 52.3 °F /  11.3 °C 29.7in /  1004.1hPa West 6.9mph /  11.1km/h 7mph /  11.3km/h 84% 0in /  0.0mm 0 W/m2
05:15 56.7 °F /  13.7 °C 51.8 °F /  11 °C 29.7in /  1004.1hPa WSW 4.9mph /  7.9km/h 6mph /  9.7km/h 84% 0in /  0.0mm 0 W/m2
05:20 56.3 °F /  13.5 °C 51.4 °F /  10.8 °C 29.7in /  1004.4hPa West 2.9mph /  4.7km/h 12mph /  19.3km/h 84% 0in /  0.0mm 0 W/m2
05:25 55.9 °F /  13.3 °C 51.3 °F /  10.7 °C 29.7in /  1004.4hPa NW 4mph /  6.4km/h 7mph /  11.3km/h 84% 0in /  0.0mm 0 W/m2
05:30 55.6 °F /  13.1 °C 50.5 °F /  10.3 °C 29.7in /  1004.4hPa WNW 4.9mph /  7.9km/h 9mph /  14.5km/h 83% 0in /  0.0mm 0 W/m2
05:35 55.2 °F /  12.9 °C 50.2 °F /  10.1 °C 29.7in /  1004.7hPa WSW 2.9mph /  4.7km/h 4mph /  6.4km/h 83% 0in /  0.0mm 0 W/m2
05:41 55 °F /  12.8 °C 50 °F /  10 °C 29.7in /  1004.7hPa West 2mph /  3.2km/h 9mph /  14.5km/h 83% 0in /  0.0mm 0 W/m2
05:46 54.9 °F /  12.7 °C 50.4 °F /  10.2 °C 29.7in /  1004.7hPa West 2.9mph /  4.7km/h 4mph /  6.4km/h 85% 0in /  0.0mm 0 W/m2
05:51 54.7 °F /  12.6 °C 50.2 °F /  10.1 °C 29.7in /  1005.1hPa West 6mph /  9.7km/h 6mph /  9.7km/h 85% 0in /  0.0mm 0 W/m2
05:56 54.7 °F /  12.6 °C 50.5 °F /  10.3 °C 29.7in /  1005.1hPa West 2.9mph /  4.7km/h 10mph /  16.1km/h 86% 0in /  0.0mm 0 W/m2
06:01 54.7 °F /  12.6 °C 50.5 °F /  10.3 °C 29.7in /  1005.1hPa West 2.9mph /  4.7km/h 10mph /  16.1km/h 86% 0in /  0.0mm 0 W/m2
06:06 54.7 °F /  12.6 °C 50.2 °F /  10.1 °C 29.7in /  1005.1hPa WSW 2mph /  3.2km/h 12mph /  19.3km/h 85% 0in /  0.0mm 0 W/m2
06:11 54.5 °F /  12.5 °C 49.8 °F /  9.9 °C 29.7in /  1005.1hPa NW 8.9mph /  14.3km/h 11mph /  17.7km/h 84% 0in /  0.0mm 0 W/m2
06:16 54.3 °F /  12.4 °C 49.6 °F /  9.8 °C 29.7in /  1005.1hPa WSW 6.9mph /  11.1km/h 10mph /  16.1km/h 84% 0in /  0.0mm 0 W/m2
06:21 54.3 °F /  12.4 °C 49.8 °F /  9.9 °C 29.7in /  1005.1hPa WNW 4mph /  6.4km/h 8mph /  12.9km/h 85% 0in /  0.0mm 0 W/m2
06:26 54.1 °F /  12.3 °C 49.8 °F /  9.9 °C 29.7in /  1005.4hPa WSW 4.9mph /  7.9km/h 9mph /  14.5km/h 85% 0in /  0.0mm 0 W/m2
06:31 54 °F /  12.2 °C 49.6 °F /  9.8 °C 29.7in /  1005.4hPa West 0.9mph /  1.4km/h 3mph /  4.8km/h 85% 0in /  0.0mm 0 W/m2
06:36 53.8 °F /  12.1 °C 49.6 °F /  9.8 °C 29.7in /  1005.4hPa Calm   3mph /  4.8km/h 86% 0in /  0.0mm 0 W/m2
06:41 53.4 °F /  11.9 °C 49.6 °F /  9.8 °C 29.7in /  1005.4hPa Calm   3mph /  4.8km/h 87% 0in /  0.0mm 0 W/m2
06:46 53.2 °F /  11.8 °C 49.5 °F /  9.7 °C 29.7in /  1005.4hPa Calm   4mph /  6.4km/h 87% 0in /  0.0mm 0 W/m2
06:51 53.2 °F /  11.8 °C 49.5 °F /  9.7 °C 29.7in /  1005.8hPa Calm   1mph /  1.6km/h 87% 0in /  0.0mm 0 W/m2
06:56 53.1 °F /  11.7 °C 49.6 °F /  9.8 °C 29.7in /  1005.8hPa WNW 2mph /  3.2km/h 3mph /  4.8km/h 88% 0in /  0.0mm 0 W/m2
07:01 52.9 °F /  11.6 °C 49.5 °F /  9.7 °C 29.7in /  1005.8hPa NNW 2mph /  3.2km/h 3mph /  4.8km/h 88% 0in /  0.0mm 0 W/m2
07:06 52.7 °F /  11.5 °C 49.3 °F /  9.6 °C 29.7in /  1005.8hPa West 2mph /  3.2km/h 5mph /  8km/h 88% 0in /  0.0mm 0 W/m2
07:11 52.5 °F /  11.4 °C 49.1 °F /  9.5 °C 29.7in /  1005.8hPa NW 2mph /  3.2km/h 2mph /  3.2km/h 88% 0in /  0.0mm 0 W/m2
07:16 52.5 °F /  11.4 °C 49.1 °F /  9.5 °C 29.7in /  1005.8hPa Calm   5mph /  8km/h 88% 0in /  0.0mm 0 W/m2
07:21 52.5 °F /  11.4 °C 49.5 °F /  9.7 °C 29.7in /  1006.1hPa NNE 0.9mph /  1.4km/h 3mph /  4.8km/h 89% 0in /  0.0mm 0 W/m2
07:26 52.3 °F /  11.3 °C 49.3 °F /  9.6 °C 29.7in /  1006.1hPa Calm   2mph /  3.2km/h 89% 0in /  0.0mm 0 W/m2
07:31 52.2 °F /  11.2 °C 49.1 °F /  9.5 °C 29.7in /  1006.1hPa Calm   2mph /  3.2km/h 89% 0in /  0.0mm 5 W/m2
07:36 52 °F /  11.1 °C 48.9 °F /  9.4 °C 29.7in /  1006.1hPa SE 0.9mph /  1.4km/h 2mph /  3.2km/h 89% 0in /  0.0mm 7 W/m2
07:41 51.6 °F /  10.9 °C 48.7 °F /  9.3 °C 29.7in /  1006.1hPa SE 0.9mph /  1.4km/h 1mph /  1.6km/h 90% 0in /  0.0mm 9 W/m2
07:46 51.4 °F /  10.8 °C 48.6 °F /  9.2 °C 29.7in /  1006.1hPa Calm   1mph /  1.6km/h 90% 0in /  0.0mm 12 W/m2
07:51 51.3 °F /  10.7 °C 48.4 °F /  9.1 °C 29.7in /  1006.4hPa East 2mph /  3.2km/h 4mph /  6.4km/h 90% 0in /  0.0mm 16 W/m2
07:56 51.3 °F /  10.7 °C 48.7 °F /  9.3 °C 29.7in /  1006.4hPa East 0.9mph /  1.4km/h 3mph /  4.8km/h 91% 0in /  0.0mm 18 W/m2
08:01 51.3 °F /  10.7 °C 48.7 °F /  9.3 °C 29.7in /  1006.4hPa East 0.9mph /  1.4km/h 2mph /  3.2km/h 91% 0in /  0.0mm 21 W/m2
08:06 51.3 °F /  10.7 °C 48.7 °F /  9.3 °C 29.7in /  1006.4hPa East 0.9mph /  1.4km/h 3mph /  4.8km/h 91% 0in /  0.0mm 25 W/m2
08:11 51.1 °F /  10.6 °C 48.6 °F /  9.2 °C 29.7in /  1006.4hPa ENE 2mph /  3.2km/h 2mph /  3.2km/h 91% 0in /  0.0mm 26 W/m2
08:16 51.1 °F /  10.6 °C 48.6 °F /  9.2 °C 29.7in /  1006.4hPa Calm   1mph /  1.6km/h 91% 0in /  0.0mm 28 W/m2
08:21 51.1 °F /  10.6 °C 48.6 °F /  9.2 °C 29.7in /  1006.4hPa East 0.9mph /  1.4km/h 1mph /  1.6km/h 91% 0in /  0.0mm 32 W/m2
08:26 51.3 °F /  10.7 °C 49.1 °F /  9.5 °C 29.7in /  1006.4hPa Calm     92% 0in /  0.0mm 33 W/m2
08:31 51.3 °F /  10.7 °C 49.1 °F /  9.5 °C 29.7in /  1006.4hPa NE 2mph /  3.2km/h 2mph /  3.2km/h 92% 0in /  0.0mm 35 W/m2
08:36 51.3 °F /  10.7 °C 49.1 °F /  9.5 °C 29.7in /  1006.4hPa Calm   1mph /  1.6km/h 92% 0in /  0.0mm 37 W/m2
08:41 51.4 °F /  10.8 °C 49.3 °F /  9.6 °C 29.7in /  1006.4hPa SE 2mph /  3.2km/h 2mph /  3.2km/h 92% 0in /  0.0mm 39 W/m2
08:46 51.6 °F /  10.9 °C 49.5 °F /  9.7 °C 29.7in /  1006.4hPa Calm   3mph /  4.8km/h 92% 0in /  0.0mm 40 W/m2
08:51 51.8 °F /  11 °C 49.3 °F /  9.6 °C 29.7in /  1006.4hPa Calm     91% 0in /  0.0mm 42 W/m2
08:56 52 °F /  11.1 °C 49.5 °F /  9.7 °C 29.7in /  1006.8hPa ESE 0.9mph /  1.4km/h 1mph /  1.6km/h 91% 0in /  0.0mm 44 W/m2
09:01 52.2 °F /  11.2 °C 49.3 °F /  9.6 °C 29.7in /  1006.8hPa North 2mph /  3.2km/h 2mph /  3.2km/h 90% 0in /  0.0mm 46 W/m2
09:06 52.5 °F /  11.4 °C 49.6 °F /  9.8 °C 29.7in /  1006.8hPa NNW 0.9mph /  1.4km/h 2mph /  3.2km/h 90% 0in /  0.0mm 111 W/m2
09:11 52.9 °F /  11.6 °C 49.6 °F /  9.8 °C 29.7in /  1006.8hPa ESE 0.9mph /  1.4km/h 7mph /  11.3km/h 89% 0in /  0.0mm 186 W/m2
09:16 53.2 °F /  11.8 °C 50 °F /  10 °C 29.7in /  1006.8hPa NW 2.9mph /  4.7km/h 3mph /  4.8km/h 89% 0in /  0.0mm 230 W/m2
09:21 53.4 °F /  11.9 °C 50 °F /  10 °C 29.7in /  1006.4hPa Calm   7mph /  11.3km/h 88% 0in /  0.0mm 172 W/m2
09:26 54 °F /  12.2 °C 50.2 °F /  10.1 °C 29.7in /  1006.4hPa NW 2.9mph /  4.7km/h 3mph /  4.8km/h 87% 0in /  0.0mm 251 W/m2
09:31 54.3 °F /  12.4 °C 50.5 °F /  10.3 °C 29.7in /  1006.4hPa Calm   1mph /  1.6km/h 87% 0in /  0.0mm 264 W/m2
09:36 54.7 °F /  12.6 °C 50.5 °F /  10.3 °C 29.7in /  1006.4hPa West 2mph /  3.2km/h 4mph /  6.4km/h 86% 0in /  0.0mm 278 W/m2
09:41 55 °F /  12.8 °C 50.5 °F /  10.3 °C 29.7in /  1006.4hPa Calm   2mph /  3.2km/h 85% 0in /  0.0mm 323 W/m2
09:46 55.4 °F /  13 °C 50.7 °F /  10.4 °C 29.7in /  1006.4hPa NNW 4mph /  6.4km/h 6mph /  9.7km/h 84% 0in /  0.0mm 301 W/m2
09:51 55.8 °F /  13.2 °C 51.1 °F /  10.6 °C 29.7in /  1006.4hPa NW 4mph /  6.4km/h 4mph /  6.4km/h 84% 0in /  0.0mm 309 W/m2
09:56 55.9 °F /  13.3 °C 50.9 °F /  10.5 °C 29.7in /  1006.4hPa Calm   4mph /  6.4km/h 83% 0in /  0.0mm 330 W/m2
10:01 56.3 °F /  13.5 °C 50.9 °F /  10.5 °C 29.7in /  1006.4hPa East 6.9mph /  11.1km/h 9mph /  14.5km/h 82% 0in /  0.0mm 316 W/m2
10:06 56.5 °F /  13.6 °C 51.1 °F /  10.6 °C 29.7in /  1006.4hPa SE 2.9mph /  4.7km/h 4mph /  6.4km/h 82% 0in /  0.0mm 285 W/m2
10:11 56.7 °F /  13.7 °C 51.3 °F /  10.7 °C 29.7in /  1006.4hPa NE 9mph /  14.5km/h 9mph /  14.5km/h 82% 0in /  0.0mm 227 W/m2
10:16 56.7 °F /  13.7 °C 51.3 °F /  10.7 °C 29.7in /  1006.4hPa Calm     82% 0in /  0.0mm 197 W/m2
10:21 56.8 °F /  13.8 °C 51.4 °F /  10.8 °C 29.7in /  1006.4hPa WSW 0.9mph /  1.4km/h 2mph /  3.2km/h 82% 0in /  0.0mm 206 W/m2
10:26 57.2 °F /  14 °C 51.8 °F /  11 °C 29.7in /  1006.4hPa North 0.9mph /  1.4km/h 2mph /  3.2km/h 82% 0in /  0.0mm 151 W/m2
10:31 57.6 °F /  14.2 °C 52.2 °F /  11.2 °C 29.7in /  1006.4hPa North 0.9mph /  1.4km/h 2mph /  3.2km/h 82% 0in /  0.0mm 533 W/m2
10:36 57.7 °F /  14.3 °C 51.6 °F /  10.9 °C 29.7in /  1006.4hPa East 4mph /  6.4km/h 4mph /  6.4km/h 80% 0in /  0.0mm 492 W/m2
10:41 58.3 °F /  14.6 °C 51.8 °F /  11 °C 29.7in /  1006.4hPa West 4mph /  6.4km/h 7mph /  11.3km/h 79% 0in /  0.0mm 156 W/m2
10:46 58.1 °F /  14.5 °C 51.3 °F /  10.7 °C 29.7in /  1006.4hPa NW 4mph /  6.4km/h 6mph /  9.7km/h 78% 0in /  0.0mm 483 W/m2
10:51 58.3 °F /  14.6 °C 51.8 °F /  11 °C 29.7in /  1006.4hPa ENE 2mph /  3.2km/h 4mph /  6.4km/h 79% 0in /  0.0mm 445 W/m2
10:56 58.5 °F /  14.7 °C 51.6 °F /  10.9 °C 29.7in /  1006.4hPa ESE 4mph /  6.4km/h 8mph /  12.9km/h 78% 0in /  0.0mm 476 W/m2
11:01 58.8 °F /  14.9 °C 52 °F /  11.1 °C 29.7in /  1006.4hPa NE 2.9mph /  4.7km/h 4mph /  6.4km/h 78% 0in /  0.0mm 497 W/m2
11:06 59.2 °F /  15.1 °C 52 °F /  11.1 °C 29.7in /  1006.1hPa ENE 2.9mph /  4.7km/h 8mph /  12.9km/h 77% 0in /  0.0mm 533 W/m2
11:11 59.5 °F /  15.3 °C 52 °F /  11.1 °C 29.7in /  1006.1hPa WNW 2.9mph /  4.7km/h 4mph /  6.4km/h 76% 0in /  0.0mm 592 W/m2
11:16 59.9 °F /  15.5 °C 52.3 °F /  11.3 °C 29.7in /  1006.1hPa NNE 2mph /  3.2km/h 3mph /  4.8km/h 76% 0in /  0.0mm 621 W/m2
11:22 60.6 °F /  15.9 °C 53.1 °F /  11.7 °C 29.7in /  1006.1hPa North 0.9mph /  1.4km/h 3mph /  4.8km/h 76% 0in /  0.0mm 673 W/m2
11:27 61.2 °F /  16.2 °C 52.5 °F /  11.4 °C 29.7in /  1006.1hPa NNW 2mph /  3.2km/h 6mph /  9.7km/h 73% 0in /  0.0mm 675 W/m2
11:32 61.2 °F /  16.2 °C 52.9 °F /  11.6 °C 29.7in /  1006.1hPa NNW 2.9mph /  4.7km/h 7mph /  11.3km/h 74% 0in /  0.0mm 687 W/m2
11:37 61 °F /  16.1 °C 52.3 °F /  11.3 °C 29.7in /  1006.1hPa West 2.9mph /  4.7km/h 7mph /  11.3km/h 73% 0in /  0.0mm 239 W/m2
11:42 61.2 °F /  16.2 °C 52 °F /  11.1 °C 29.7in /  1006.1hPa WNW 6mph /  9.7km/h 9mph /  14.5km/h 72% 0in /  0.0mm 756 W/m2
11:47 60.8 °F /  16 °C 52.2 °F /  11.2 °C 29.7in /  1005.8hPa Calm   5mph /  8km/h 73% 0in /  0.0mm 594 W/m2
11:52 61.3 °F /  16.3 °C 52.7 °F /  11.5 °C 29.7in /  1005.8hPa WNW 2.9mph /  4.7km/h 4mph /  6.4km/h 73% 0in /  0.0mm 216 W/m2
11:57 61.9 °F /  16.6 °C 52.7 °F /  11.5 °C 29.7in /  1005.8hPa East 2mph /  3.2km/h 11mph /  17.7km/h 72% 0in /  0.0mm 202 W/m2
12:02 61.9 °F /  16.6 °C 52.3 °F /  11.3 °C 29.7in /  1005.8hPa East 2mph /  3.2km/h 4mph /  6.4km/h 71% 0in /  0.0mm 236 W/m2
12:07 62.1 °F /  16.7 °C 52.5 °F /  11.4 °C 29.7in /  1005.8hPa East 2mph /  3.2km/h 9mph /  14.5km/h 71% 0in /  0.0mm 236 W/m2
12:12 62.4 °F /  16.9 °C 52.5 °F /  11.4 °C 29.7in /  1005.8hPa WNW 6mph /  9.7km/h 7mph /  11.3km/h 70% 0in /  0.0mm 745 W/m2
12:17 63.1 °F /  17.3 °C 53.2 °F /  11.8 °C 29.7in /  1005.4hPa NNW 6mph /  9.7km/h 6mph /  9.7km/h 70% 0in /  0.0mm 752 W/m2
12:22 63.3 °F /  17.4 °C 53.1 °F /  11.7 °C 29.7in /  1005.4hPa NE 4mph /  6.4km/h 4mph /  6.4km/h 69% 0in /  0.0mm 738 W/m2
12:27 63.3 °F /  17.4 °C 53.1 °F /  11.7 °C 29.7in /  1005.4hPa NE 2.9mph /  4.7km/h 8mph /  12.9km/h 69% 0in /  0.0mm 297 W/m2
12:32 63.5 °F /  17.5 °C 52.7 °F /  11.5 °C 29.7in /  1005.4hPa WSW 13mph /  20.9km/h 13mph /  20.9km/h 68% 0in /  0.0mm 708 W/m2
12:37 63.5 °F /  17.5 °C 52.7 °F /  11.5 °C 29.7in /  1005.4hPa West 2.9mph /  4.7km/h 8mph /  12.9km/h 68% 0in /  0.0mm 638 W/m2
12:42 63.5 °F /  17.5 °C 52.3 °F /  11.3 °C 29.7in /  1005.4hPa West 8.1mph /  13km/h 13mph /  20.9km/h 67% 0in /  0.0mm 515 W/m2
12:47 63.1 °F /  17.3 °C 52.3 °F /  11.3 °C 29.7in /  1005.1hPa West 2mph /  3.2km/h 2mph /  3.2km/h 68% 0in /  0.0mm 715 W/m2
12:52 63.1 °F /  17.3 °C 53.2 °F /  11.8 °C 29.7in /  1005.1hPa WNW 4.9mph /  7.9km/h 13mph /  20.9km/h 70% 0in /  0.0mm 229 W/m2
12:57 63.3 °F /  17.4 °C 53.1 °F /  11.7 °C 29.7in /  1004.7hPa ENE 0.9mph /  1.4km/h 5mph /  8km/h 69% 0in /  0.0mm 666 W/m2
13:02 64 °F /  17.8 °C 52.9 °F /  11.6 °C 29.7in /  1004.7hPa North 4mph /  6.4km/h 13mph /  20.9km/h 67% 0in /  0.0mm 701 W/m2
13:07 64.6 °F /  18.1 °C 52.9 °F /  11.6 °C 29.7in /  1004.7hPa East 6.9mph /  11.1km/h 7mph /  11.3km/h 66% 0in /  0.0mm 756 W/m2
13:12 65.1 °F /  18.4 °C 53.1 °F /  11.7 °C 29.7in /  1004.7hPa Calm   13mph /  20.9km/h 65% 0in /  0.0mm 612 W/m2
13:17 64.6 °F /  18.1 °C 52.2 °F /  11.2 °C 29.7in /  1004.7hPa NNE 0.9mph /  1.4km/h 7mph /  11.3km/h 64% 0in /  0.0mm 652 W/m2
13:22 64.4 °F /  18 °C 52.9 °F /  11.6 °C 29.7in /  1004.7hPa WNW 2mph /  3.2km/h 3mph /  4.8km/h 66% 0in /  0.0mm 399 W/m2
13:27 64.8 °F /  18.2 °C 52.7 °F /  11.5 °C 29.7in /  1004.7hPa WSW 2mph /  3.2km/h 6mph /  9.7km/h 65% 0in /  0.0mm 436 W/m2
13:32 64.8 °F /  18.2 °C 52.7 °F /  11.5 °C 29.7in /  1004.7hPa NE 0.9mph /  1.4km/h 2mph /  3.2km/h 65% 0in /  0.0mm 211 W/m2
13:37 64.6 °F /  18.1 °C 51.6 °F /  10.9 °C 29.7in /  1004.4hPa NW 4mph /  6.4km/h 8mph /  12.9km/h 63% 0in /  0.0mm 185 W/m2
13:42 64.8 °F /  18.2 °C 51.8 °F /  11 °C 29.7in /  1004.4hPa NW 4mph /  6.4km/h 10mph /  16.1km/h 63% 0in /  0.0mm 445 W/m2
13:47 64.9 °F /  18.3 °C 51.6 °F /  10.9 °C 29.7in /  1004.4hPa West 6.9mph /  11.1km/h 8mph /  12.9km/h 62% 0in /  0.0mm 244 W/m2
13:52 65.1 °F /  18.4 °C 52.2 °F /  11.2 °C 29.7in /  1004.4hPa North 4mph /  6.4km/h 10mph /  16.1km/h 63% 0in /  0.0mm 283 W/m2
13:57 65.5 °F /  18.6 °C 51.6 °F /  10.9 °C 29.7in /  1004.1hPa NW 2.9mph /  4.7km/h 8mph /  12.9km/h 61% 0in /  0.0mm 503 W/m2
14:02 65.5 °F /  18.6 °C 52.2 °F /  11.2 °C 29.7in /  1004.1hPa WNW 8.1mph /  13km/h 13mph /  20.9km/h 62% 0in /  0.0mm 302 W/m2
14:07 65.7 °F /  18.7 °C 52.3 °F /  11.3 °C 29.7in /  1004.1hPa SW 0.9mph /  1.4km/h 3mph /  4.8km/h 62% 0in /  0.0mm 244 W/m2
14:12 65.7 °F /  18.7 °C 51.8 °F /  11 °C 29.7in /  1004.1hPa West 6mph /  9.7km/h 13mph /  20.9km/h 61% 0in /  0.0mm 251 W/m2
14:17 65.7 °F /  18.7 °C 52.7 °F /  11.5 °C 29.7in /  1004.1hPa NW 4mph /  6.4km/h 8mph /  12.9km/h 63% 0in /  0.0mm 294 W/m2
14:22 65.8 °F /  18.8 °C 52.5 °F /  11.4 °C 29.7in /  1004.1hPa West 9mph /  14.5km/h 9mph /  14.5km/h 62% 0in /  0.0mm 360 W/m2
14:27 66 °F /  18.9 °C 52.7 °F /  11.5 °C 29.6in /  1003.7hPa ESE 2.9mph /  4.7km/h 7mph /  11.3km/h 62% 0in /  0.0mm 237 W/m2
14:32 66 °F /  18.9 °C 52.7 °F /  11.5 °C 29.6in /  1003.7hPa NW 0.9mph /  1.4km/h 6mph /  9.7km/h 62% 0in /  0.0mm 185 W/m2
14:37 66 °F /  18.9 °C 52.2 °F /  11.2 °C 29.6in /  1003.4hPa WNW 2.9mph /  4.7km/h 4mph /  6.4km/h 61% 0in /  0.0mm 260 W/m2
14:42 66.4 °F /  19.1 °C 52.5 °F /  11.4 °C 29.6in /  1003.4hPa WNW 0.9mph /  1.4km/h 6mph /  9.7km/h 61% 0in /  0.0mm 244 W/m2
14:47 66.7 °F /  19.3 °C 53.2 °F /  11.8 °C 29.6in /  1003.4hPa WSW 4mph /  6.4km/h 5mph /  8km/h 62% 0in /  0.0mm 176 W/m2
14:52 66.7 °F /  19.3 °C 51.4 °F /  10.8 °C 29.6in /  1003.4hPa WNW 4mph /  6.4km/h 8mph /  12.9km/h 58% 0in /  0.0mm 116 W/m2
14:57 66.7 °F /  19.3 °C 52.3 °F /  11.3 °C 29.6in /  1003.4hPa Calm   3mph /  4.8km/h 60% 0in /  0.0mm 199 W/m2
15:02 66.7 °F /  19.3 °C 51.4 °F /  10.8 °C 29.6in /  1003.4hPa NNW 2.9mph /  4.7km/h 8mph /  12.9km/h 58% 0in /  0.0mm 220 W/m2
15:07 66.7 °F /  19.3 °C 51.4 °F /  10.8 °C 29.6in /  1003.4hPa ENE 4mph /  6.4km/h 4mph /  6.4km/h 58% 0in /  0.0mm 315 W/m2
15:12 66.9 °F /  19.4 °C 52.2 °F /  11.2 °C 29.6in /  1003.0hPa West 2.9mph /  4.7km/h 5mph /  8km/h 59% 0in /  0.0mm 202 W/m2
15:17 66.9 °F /  19.4 °C 51.3 °F /  10.7 °C 29.6in /  1003.0hPa SW 0.9mph /  1.4km/h 5mph /  8km/h 57% 0in /  0.0mm 255 W/m2
15:27 67.1 °F /  19.5 °C 51.8 °F /  11 °C 29.6in /  1002.7hPa NW 0.9mph /  1.4km/h 4mph /  6.4km/h 58% 0in /  0.0mm 202 W/m2
15:32 67.3 °F /  19.6 °C 51.4 °F /  10.8 °C 29.6in /  1002.7hPa Calm   2mph /  3.2km/h 57% 0in /  0.0mm 260 W/m2
15:37 67.5 °F /  19.7 °C 51.6 °F /  10.9 °C 29.6in /  1002.7hPa WNW 2mph /  3.2km/h 6mph /  9.7km/h 57% 0in /  0.0mm 302 W/m2
15:42 67.6 °F /  19.8 °C 51.8 °F /  11 °C 29.6in /  1002.7hPa WNW 2mph /  3.2km/h 2mph /  3.2km/h 57% 0in /  0.0mm 167 W/m2
15:47 67.6 °F /  19.8 °C 51.8 °F /  11 °C 29.6in /  1002.7hPa North 2.9mph /  4.7km/h 3mph /  4.8km/h 57% 0in /  0.0mm 373 W/m2
15:52 67.5 °F /  19.7 °C 51.6 °F /  10.9 °C 29.6in /  1002.7hPa WSW 6.9mph /  11.1km/h 8mph /  12.9km/h 57% 0in /  0.0mm 139 W/m2
15:57 67.5 °F /  19.7 °C 52.2 °F /  11.2 °C 29.6in /  1002.4hPa East 0.9mph /  1.4km/h 1mph /  1.6km/h 58% 0in /  0.0mm 120 W/m2
16:02 67.3 °F /  19.6 °C 52 °F /  11.1 °C 29.6in /  1002.4hPa Calm   4mph /  6.4km/h 58% 0in /  0.0mm 165 W/m2
16:07 67.1 °F /  19.5 °C 51.8 °F /  11 °C 29.6in /  1002.4hPa NW 0.9mph /  1.4km/h 3mph /  4.8km/h 58% 0in /  0.0mm 105 W/m2
16:12 66.9 °F /  19.4 °C 52.2 °F /  11.2 °C 29.6in /  1002.4hPa Calm   3mph /  4.8km/h 59% 0in /  0.0mm 79 W/m2
16:17 66.9 °F /  19.4 °C 52.5 °F /  11.4 °C 29.6in /  1002.4hPa NNW 0.9mph /  1.4km/h 2mph /  3.2km/h 60% 0in /  0.0mm 107 W/m2
16:22 66.7 °F /  19.3 °C 52.9 °F /  11.6 °C 29.6in /  1002.0hPa East 6.9mph /  11.1km/h 12mph /  19.3km/h 61% 0in /  0.0mm 148 W/m2
16:27 66.2 °F /  19 °C 53.2 °F /  11.8 °C 29.6in /  1002.0hPa ENE 4mph /  6.4km/h 10mph /  16.1km/h 63% 0in /  0.0mm 181 W/m2
16:32 66 °F /  18.9 °C 53.1 °F /  11.7 °C 29.6in /  1002.0hPa ESE 4mph /  6.4km/h 12mph /  19.3km/h 63% 0in /  0.0mm 213 W/m2
16:37 66 °F /  18.9 °C 53.4 °F /  11.9 °C 29.6in /  1002.0hPa SSE 0.9mph /  1.4km/h 7mph /  11.3km/h 64% 0in /  0.0mm 186 W/m2
16:47 66 °F /  18.9 °C 54.3 °F /  12.4 °C 29.6in /  1001.7hPa ESE 2mph /  3.2km/h 12mph /  19.3km/h 66% 0in /  0.0mm 197 W/m2
16:52 65.8 °F /  18.8 °C 55 °F /  12.8 °C 29.6in /  1001.7hPa East 4mph /  6.4km/h 8mph /  12.9km/h 68% 0in /  0.0mm 125 W/m2
16:57 65.3 °F /  18.5 °C 54.9 °F /  12.7 °C 29.6in /  1001.7hPa SE 2mph /  3.2km/h 11mph /  17.7km/h 69% 0in /  0.0mm 88 W/m2
17:02 64.9 °F /  18.3 °C 54.5 °F /  12.5 °C 29.6in /  1001.7hPa East 4mph /  6.4km/h 10mph /  16.1km/h 69% 0in /  0.0mm 47 W/m2
17:07 64.4 °F /  18 °C 54.3 °F /  12.4 °C 29.6in /  1001.7hPa ESE 6mph /  9.7km/h 11mph /  17.7km/h 70% 0in /  0.0mm 23 W/m2
17:12 63.9 °F /  17.7 °C 55 °F /  12.8 °C 29.6in /  1001.4hPa ESE 2.9mph /  4.7km/h 11mph /  17.7km/h 73% 0in /  0.0mm 16 W/m2
17:17 63.1 °F /  17.3 °C 55 °F /  12.8 °C 29.6in /  1001.4hPa ENE 2mph /  3.2km/h 7mph /  11.3km/h 75% 0in /  0.0mm 18 W/m2
17:22 62.8 °F /  17.1 °C 55 °F /  12.8 °C 29.6in /  1001.0hPa NE 4mph /  6.4km/h 11mph /  17.7km/h 76% 0in /  0.0mm 25 W/m2
17:27 62.4 °F /  16.9 °C 55.4 °F /  13 °C 29.6in /  1001.0hPa ENE 2mph /  3.2km/h 6mph /  9.7km/h 78% 0in /  0.0mm 54 W/m2
17:32 62.2 °F /  16.8 °C 55.2 °F /  12.9 °C 29.6in /  1001.4hPa ESE 2.9mph /  4.7km/h 6mph /  9.7km/h 78% 0in /  0.0mm 56 W/m2
17:37 62.1 °F /  16.7 °C 55.4 °F /  13 °C 29.6in /  1001.4hPa SE 2mph /  3.2km/h 6mph /  9.7km/h 79% 0in /  0.0mm 54 W/m2
17:42 61.9 °F /  16.6 °C 55.6 °F /  13.1 °C 29.6in /  1001.4hPa NE 2.9mph /  4.7km/h 5mph /  8km/h 80% 0in /  0.0mm 54 W/m2
17:47 61.9 °F /  16.6 °C 55.6 °F /  13.1 °C 29.6in /  1001.4hPa NNE 0.9mph /  1.4km/h 3mph /  4.8km/h 80% 0in /  0.0mm 46 W/m2
17:52 61.7 °F /  16.5 °C 55.4 °F /  13 °C 29.6in /  1001.4hPa ESE 6mph /  9.7km/h 8mph /  12.9km/h 80% 0in /  0.0mm 33 W/m2
17:57 61.5 °F /  16.4 °C 55.6 °F /  13.1 °C 29.6in /  1001.0hPa East 2.9mph /  4.7km/h 7mph /  11.3km/h 81% 0in /  0.0mm 28 W/m2
18:02 61.5 °F /  16.4 °C 55.6 °F /  13.1 °C 29.6in /  1000.7hPa Calm   3mph /  4.8km/h 81% 0in /  0.0mm 21 W/m2
18:07 61.3 °F /  16.3 °C 55.8 °F /  13.2 °C 29.6in /  1000.7hPa East 0.9mph /  1.4km/h 8mph /  12.9km/h 82% 0in /  0.0mm 18 W/m2
18:12 61.2 °F /  16.2 °C 55.6 °F /  13.1 °C 29.5in /  1000.3hPa ENE 2mph /  3.2km/h 9mph /  14.5km/h 82% 0in /  0.0mm 23 W/m2
18:17 61.2 °F /  16.2 °C 55.9 °F /  13.3 °C 29.5in /  1000.3hPa ENE 4mph /  6.4km/h 11mph /  17.7km/h 83% 0in /  0.0mm 30 W/m2
18:22 61 °F /  16.1 °C 55.8 °F /  13.2 °C 29.5in /  1000.3hPa East 2mph /  3.2km/h 3mph /  4.8km/h 83% 0in /  0.0mm 37 W/m2
18:27 61 °F /  16.1 °C 55.8 °F /  13.2 °C 29.5in /  1000.3hPa NE 2.9mph /  4.7km/h 11mph /  17.7km/h 83% 0in /  0.0mm 39 W/m2
18:32 60.8 °F /  16 °C 55.9 °F /  13.3 °C 29.5in /  1000.3hPa ENE 4.9mph /  7.9km/h 7mph /  11.3km/h 84% 0in /  0.0mm 39 W/m2
18:37 60.6 °F /  15.9 °C 55.8 °F /  13.2 °C 29.5in /  1000.3hPa ENE 2.9mph /  4.7km/h 9mph /  14.5km/h 84% 0in /  0.0mm 33 W/m2
18:42 60.6 °F /  15.9 °C 55.8 °F /  13.2 °C 29.5in /  1000.0hPa NE 4mph /  6.4km/h 4mph /  6.4km/h 84% 0in /  0.0mm 35 W/m2
18:47 60.6 °F /  15.9 °C 56.1 °F /  13.4 °C 29.5in /  1000.0hPa NE 4mph /  6.4km/h 10mph /  16.1km/h 85% 0in /  0.0mm 39 W/m2
18:52 60.4 °F /  15.8 °C 55.9 °F /  13.3 °C 29.5in /  1000.0hPa East 4mph /  6.4km/h 8mph /  12.9km/h 85% 0in /  0.0mm 39 W/m2
18:57 60.4 °F /  15.8 °C 56.3 °F /  13.5 °C 29.5in /  1000.0hPa ENE 2.9mph /  4.7km/h 8mph /  12.9km/h 86% 0in /  0.0mm 32 W/m2
19:02 60.3 °F /  15.7 °C 56.1 °F /  13.4 °C 29.5in /  1000.0hPa East 8.1mph /  13km/h 14mph /  22.5km/h 86% 0in /  0.0mm 25 W/m2
19:07 60.3 °F /  15.7 °C 56.3 °F /  13.5 °C 29.5in /  1000.0hPa ENE 2.9mph /  4.7km/h 9mph /  14.5km/h 87% 0in /  0.0mm 18 W/m2
19:12 60.3 °F /  15.7 °C 56.3 °F /  13.5 °C 29.5in /  1000.0hPa East 6.9mph /  11.1km/h 12mph /  19.3km/h 87% 0in /  0.0mm 12 W/m2
19:17 60.3 °F /  15.7 °C 56.3 °F /  13.5 °C 29.5in /  1000.0hPa East 0.9mph /  1.4km/h 4mph /  6.4km/h 87% 0in /  0.0mm 9 W/m2
19:22 60.1 °F /  15.6 °C 56.1 °F /  13.4 °C 29.5in /  1000.0hPa ESE 6.9mph /  11.1km/h 7mph /  11.3km/h 87% 0in /  0.0mm 5 W/m2
19:27 60.1 °F /  15.6 °C 56.5 °F /  13.6 °C 29.5in /  999.7hPa ESE 2mph /  3.2km/h 5mph /  8km/h 88% 0in /  0.0mm 0 W/m2
19:32 60.1 °F /  15.6 °C 56.5 °F /  13.6 °C 29.5in /  999.7hPa NE 4.9mph /  7.9km/h 7mph /  11.3km/h 88% 0in /  0.0mm 0 W/m2
19:37 59.9 °F /  15.5 °C 56.3 °F /  13.5 °C 29.5in /  999.7hPa ENE 2mph /  3.2km/h 3mph /  4.8km/h 88% 0in /  0.0mm 0 W/m2
19:42 59.9 °F /  15.5 °C 56.3 °F /  13.5 °C 29.5in /  999.7hPa ESE 2.9mph /  4.7km/h 4mph /  6.4km/h 88% 0in /  0.0mm 0 W/m2
19:47 59.9 °F /  15.5 °C 56.3 °F /  13.5 °C 29.5in /  999.7hPa East 0.9mph /  1.4km/h 5mph /  8km/h 88% 0in /  0.0mm 0 W/m2
19:52 59.9 °F /  15.5 °C 56.3 °F /  13.5 °C 29.5in /  999.7hPa Calm   1mph /  1.6km/h 88% 0in /  0.0mm 0 W/m2
19:57 59.7 °F /  15.4 °C 56.5 °F /  13.6 °C 29.5in /  999.3hPa ENE 2.9mph /  4.7km/h 5mph /  8km/h 89% 0in /  0.0mm 0 W/m2
20:02 59.7 °F /  15.4 °C 56.5 °F /  13.6 °C 29.5in /  999.3hPa Calm   2mph /  3.2km/h 89% 0in /  0.0mm 0 W/m2
20:07 59.5 °F /  15.3 °C 56.3 °F /  13.5 °C 29.5in /  999.3hPa ENE 2.9mph /  4.7km/h 4mph /  6.4km/h 89% 0in /  0.0mm 0 W/m2
20:12 59.5 °F /  15.3 °C 56.3 °F /  13.5 °C 29.5in /  999.7hPa Calm   2mph /  3.2km/h 89% 0in /  0.0mm 0 W/m2
20:17 59.4 °F /  15.2 °C 56.1 °F /  13.4 °C 29.5in /  999.3hPa Calm   1mph /  1.6km/h 89% 0in /  0.0mm 0 W/m2
20:22 59.4 °F /  15.2 °C 56.5 °F /  13.6 °C 29.5in /  999.7hPa Calm   2mph /  3.2km/h 90% 0in /  0.0mm 0 W/m2
20:27 59.4 °F /  15.2 °C 56.5 °F /  13.6 °C 29.5in /  999.7hPa NE 2mph /  3.2km/h 2mph /  3.2km/h 90% 0in /  0.0mm 0 W/m2
20:32 59.4 °F /  15.2 °C 56.5 °F /  13.6 °C 29.5in /  999.7hPa NE 0.9mph /  1.4km/h 5mph /  8km/h 90% 0in /  0.0mm 0 W/m2
20:37 59.4 °F /  15.2 °C 56.5 °F /  13.6 °C 29.5in /  999.7hPa Calm   2mph /  3.2km/h 90% 0in /  0.0mm 0 W/m2
20:42 59.4 °F /  15.2 °C 56.5 °F /  13.6 °C 29.5in /  999.7hPa NE 2mph /  3.2km/h 2mph /  3.2km/h 90% 0in /  0.0mm 0 W/m2
20:47 59.5 °F /  15.3 °C 56.7 °F /  13.7 °C 29.5in /  999.7hPa NE 0.9mph /  1.4km/h 1mph /  1.6km/h 90% 0in /  0.0mm 0 W/m2
20:52 59.4 °F /  15.2 °C 56.5 °F /  13.6 °C 29.5in /  999.7hPa Calm   3mph /  4.8km/h 90% 0in /  0.0mm 0 W/m2
20:57 59.5 °F /  15.3 °C 56.7 °F /  13.7 °C 29.5in /  999.3hPa NNE 0.9mph /  1.4km/h 2mph /  3.2km/h 90% 0in /  0.0mm 0 W/m2
21:02 59.5 °F /  15.3 °C 56.7 °F /  13.7 °C 29.5in /  999.3hPa Calm   2mph /  3.2km/h 90% 0in /  0.0mm 0 W/m2
21:07 59.5 °F /  15.3 °C 56.3 °F /  13.5 °C 29.5in /  999.3hPa NE 0.9mph /  1.4km/h 1mph /  1.6km/h 89% 0in /  0.0mm 0 W/m2
21:12 59.5 °F /  15.3 °C 56.3 °F /  13.5 °C 29.5in /  999.3hPa East 2.9mph /  4.7km/h 3mph /  4.8km/h 89% 0in /  0.0mm 0 W/m2
21:17 59.7 °F /  15.4 °C 56.5 °F /  13.6 °C 29.5in /  999.3hPa North 2mph /  3.2km/h 6mph /  9.7km/h 89% 0in /  0.0mm 0 W/m2
21:22 59.7 °F /  15.4 °C 56.5 °F /  13.6 °C 29.5in /  999.3hPa NNE 2mph /  3.2km/h 3mph /  4.8km/h 89% 0in /  0.0mm 0 W/m2
21:27 59.9 °F /  15.5 °C 56.7 °F /  13.7 °C 29.5in /  999.7hPa ENE 2.9mph /  4.7km/h 5mph /  8km/h 89% 0in /  0.0mm 0 W/m2
21:32 59.9 °F /  15.5 °C 56.7 °F /  13.7 °C 29.5in /  999.7hPa NNE 0.9mph /  1.4km/h 3mph /  4.8km/h 89% 0in /  0.0mm 0 W/m2
21:38 59.9 °F /  15.5 °C 56.7 °F /  13.7 °C 29.5in /  999.7hPa ENE 2mph /  3.2km/h 9mph /  14.5km/h 89% 0.02in /  0.5mm 0 W/m2
21:43 59.7 °F /  15.4 °C 56.5 °F /  13.6 °C 29.5in /  999.7hPa Calm   2mph /  3.2km/h 89% 0.03in /  0.8mm 0 W/m2
21:48 59.5 °F /  15.3 °C 56.7 °F /  13.7 °C 29.5in /  999.3hPa NW 4mph /  6.4km/h 7mph /  11.3km/h 90% 0.05in /  1.3mm 0 W/m2
21:53 59.5 °F /  15.3 °C 56.7 °F /  13.7 °C 29.5in /  999.3hPa WNW 2mph /  3.2km/h 3mph /  4.8km/h 90% 0.08in /  2.0mm 0 W/m2
21:58 59.4 °F /  15.2 °C 56.7 °F /  13.7 °C 29.5in /  999.3hPa ENE 2mph /  3.2km/h 6mph /  9.7km/h 91% 0.09in /  2.3mm 0 W/m2
22:03 59.2 °F /  15.1 °C 56.5 °F /  13.6 °C 29.5in /  999.0hPa ENE 2mph /  3.2km/h 3mph /  4.8km/h 91% 0.09in /  2.3mm 0 W/m2
22:08 59 °F /  15 °C 56.3 °F /  13.5 °C 29.5in /  999.3hPa ENE 2mph /  3.2km/h 3mph /  4.8km/h 91% 0.09in /  2.3mm 0 W/m2
22:13 58.8 °F /  14.9 °C 56.5 °F /  13.6 °C 29.5in /  999.3hPa Calm   2mph /  3.2km/h 92% 0.09in /  2.3mm 0 W/m2
22:18 58.8 °F /  14.9 °C 56.5 °F /  13.6 °C 29.5in /  999.3hPa ENE 0.9mph /  1.4km/h 3mph /  4.8km/h 92% 0.09in /  2.3mm 0 W/m2
22:23 58.6 °F /  14.8 °C 56.3 °F /  13.5 °C 29.5in /  999.3hPa NNE 2mph /  3.2km/h 6mph /  9.7km/h 92% 0.09in /  2.3mm 0 W/m2
22:28 58.6 °F /  14.8 °C 56.3 °F /  13.5 °C 29.5in /  999.0hPa NNW 2.9mph /  4.7km/h 5mph /  8km/h 92% 0.09in /  2.3mm 0 W/m2
22:33 58.6 °F /  14.8 °C 55.9 °F /  13.3 °C 29.5in /  999.0hPa NNW 0.9mph /  1.4km/h 6mph /  9.7km/h 91% 0.09in /  2.3mm 0 W/m2
22:38 58.6 °F /  14.8 °C 55.9 °F /  13.3 °C 29.5in /  999.0hPa NNE 0.9mph /  1.4km/h 3mph /  4.8km/h 91% 0.08in /  2.0mm 0 W/m2
22:43 58.6 °F /  14.8 °C 55.9 °F /  13.3 °C 29.5in /  999.0hPa NE 2mph /  3.2km/h 3mph /  4.8km/h 91% 0.06in /  1.5mm 0 W/m2
22:48 58.5 °F /  14.7 °C 55.8 °F /  13.2 °C 29.5in /  998.6hPa Calm   4mph /  6.4km/h 91% 0.05in /  1.3mm 0 W/m2
22:53 58.5 °F /  14.7 °C 55.8 °F /  13.2 °C 29.5in /  998.6hPa ENE 2mph /  3.2km/h 3mph /  4.8km/h 91% 0.02in /  0.5mm 0 W/m2
22:58 58.5 °F /  14.7 °C 55.8 °F /  13.2 °C 29.5in /  998.6hPa NNE 0.9mph /  1.4km/h 4mph /  6.4km/h 91% 0.01in /  0.2mm 0 W/m2
23:03 58.5 °F /  14.7 °C 55.8 °F /  13.2 °C 29.5in /  998.6hPa ENE 2mph /  3.2km/h 7mph /  11.3km/h 91% 0in /  0.0mm 0 W/m2
23:08 58.3 °F /  14.6 °C 55.6 °F /  13.1 °C 29.5in /  998.6hPa ENE 2.9mph /  4.7km/h 4mph /  6.4km/h 91% 0in /  0.0mm 0 W/m2
23:13 58.3 °F /  14.6 °C 55.6 °F /  13.1 °C 29.5in /  998.6hPa NE 0.9mph /  1.4km/h 7mph /  11.3km/h 91% 0in /  0.0mm 0 W/m2
23:18 58.3 °F /  14.6 °C 55.6 °F /  13.1 °C 29.5in /  998.6hPa NNE 0.9mph /  1.4km/h 3mph /  4.8km/h 91% 0in /  0.0mm 0 W/m2
23:23 58.3 °F /  14.6 °C 55.6 °F /  13.1 °C 29.5in /  998.3hPa ENE 2.9mph /  4.7km/h 5mph /  8km/h 91% 0in /  0.0mm 0 W/m2
23:28 58.3 °F /  14.6 °C 55.4 °F /  13 °C 29.5in /  998.3hPa ENE 0.9mph /  1.4km/h 4mph /  6.4km/h 90% 0in /  0.0mm 0 W/m2
23:33 57.9 °F /  14.4 °C 55 °F /  12.8 °C 29.5in /  998.0hPa ENE 4mph /  6.4km/h 8mph /  12.9km/h 90% 0in /  0.0mm 0 W/m2
23:38 57.9 °F /  14.4 °C 55 °F /  12.8 °C 29.5in /  998.0hPa North 2mph /  3.2km/h 4mph /  6.4km/h 90% 0in /  0.0mm 0 W/m2
23:43 57.9 °F /  14.4 °C 55 °F /  12.8 °C 29.5in /  998.0hPa NE 2.9mph /  4.7km/h 5mph /  8km/h 90% 0in /  0.0mm 0 W/m2
23:48 57.7 °F /  14.3 °C 54.9 °F /  12.7 °C 29.5in /  998.0hPa NE 0.9mph /  1.4km/h 1mph /  1.6km/h 90% 0in /  0.0mm 0 W/m2
23:53 57.7 °F /  14.3 °C 54.9 °F /  12.7 °C 29.5in /  998.0hPa West 2mph /  3.2km/h 2mph /  3.2km/h 90% 0in /  0.0mm 0 W/m2
23:58 57.6 °F /  14.2 °C 54.7 °F /  12.6 °C 29.5in /  998.0hPa SSE 0.9mph /  1.4km/h 2mph /  3.2km/h 90% 0in /  0.0mm 0 W/m2
Juneau County Weather
Compliments of Weather Underground - 4 mb